< Typhoon 198629 1987 Season Typhoon 198702 >
Typhoon 198701 (ORCHID)
General InformationTrack Information on Google MapsDetailed Wind InformationList of All Images || Disaster Info.ResourceGoogle EarthGE AnimationAtom FeedGeoJSON
Detalied Best Track (Time Zone = UTC)
Year Month Day Hour Lat. Long. Pressure (hPa) Wind (kt) Class Image Chart
1987 1 7 18 6.0 153.0 1006 0 2 Image Chart
1987 1 8 00 6.2 152.3 1006 0 2 Image Chart
1987 1 8 06 6.4 151.5 1004 0 2 Image Chart
1987 1 8 12 6.7 150.8 1004 0 2 Image Chart
1987 1 8 18 6.9 150.1 1004 0 2 Image Chart
1987 1 9 00 7.2 149.2 1004 0 2 Image Chart
1987 1 9 06 7.5 147.6 1002 35 3 Image Chart
1987 1 9 12 7.9 146.2 1002 40 3 Image Chart
1987 1 9 18 8.5 144.5 998 40 3 Image Chart
1987 1 10 00 8.8 143.4 990 50 4 Image Chart
1987 1 10 06 9.3 142.0 980 55 4 Image Chart
1987 1 10 12 9.7 140.3 975 65 5 Image Chart
1987 1 10 18 10.0 139.3 965 70 5 Image Chart
1987 1 11 00 10.2 138.0 955 80 5 Image Chart
1987 1 11 06 10.4 136.9 955 90 5 Image Chart
1987 1 11 12 10.7 135.8 965 90 5 Image Chart
1987 1 11 18 10.9 134.8 980 75 5 Image Chart
1987 1 12 00 11.0 134.1 985 65 5 Image Chart
1987 1 12 06 11.3 133.3 980 65 5 Image Chart
1987 1 12 12 11.7 132.7 975 70 5 Image Chart
1987 1 12 18 11.7 132.0 980 65 5 Image Chart
1987 1 13 00 11.2 131.6 990 55 4 Image Chart
1987 1 13 06 10.5 131.2 996 55 4 Image Chart
1987 1 13 12 9.5 130.8 1000 55 4 Image Chart
1987 1 13 18 8.5 130.5 1002 45 3 Image Chart
1987 1 14 00 7.0 130.0 1004 0 2 Image Chart
1987 1 14 06 5.5 129.5 1004 0 2 Image Chart
Japan Meteorological Agency Best Track Data | Correction Date : 1992-10-21
< Typhoon 198629 1987 Season Typhoon 198702 >

Help